createdAt,value
2023-03-08T00:00:43.863Z,83.95
2023-03-08T00:03:16.671Z,85.28
2023-03-08T00:05:45.768Z,85.21
2023-03-08T00:08:14.479Z,85.26
2023-03-08T00:10:48.476Z,84.33
2023-03-08T00:13:18.698Z,85.08
2023-03-08T00:15:48.032Z,84.96
2023-03-08T00:18:20.141Z,83.47
2023-03-08T00:20:48.039Z,83.39
2023-03-08T00:23:17.208Z,82.97
2023-03-08T00:25:45.737Z,84.03
2023-03-08T00:28:14.162Z,82.85
2023-03-08T00:30:44.552Z,83.15
2023-03-08T00:33:12.859Z,85.69
2023-03-08T00:35:44.666Z,82.97
2023-03-08T00:38:12.481Z,84.99
2023-03-08T00:40:41.590Z,83.48
2023-03-08T00:43:09.509Z,83.81
2023-03-08T00:45:38.030Z,83.07
2023-03-08T00:48:09.041Z,82.57
2023-03-08T00:50:39.819Z,82.90
2023-03-08T00:53:10.618Z,83.65
2023-03-08T00:55:40.561Z,82.62
2023-03-08T00:58:09.640Z,82.79
2023-03-08T01:00:49.022Z,81.75
2023-03-08T01:03:18.076Z,84.72
2023-03-08T01:05:50.317Z,81.12
2023-03-08T01:08:22.112Z,80.95
2023-03-08T01:10:51.361Z,83.55
2023-03-08T01:13:20.821Z,81.88
2023-03-08T01:15:49.648Z,80.72
2023-03-08T01:18:20.147Z,84.39
2023-03-08T01:20:56.678Z,84.21
2023-03-08T01:23:27.001Z,82.48
2023-03-08T01:26:03.244Z,81.30
2023-03-08T01:28:32.328Z,81.63
2023-03-08T01:31:03.257Z,82.55
2023-03-08T01:33:31.666Z,82.22
2023-03-08T01:36:00.943Z,83.34
2023-03-08T01:38:36.307Z,81.40
2023-03-08T01:41:19.177Z,80.62
2023-03-08T01:43:47.534Z,81.46
2023-03-08T01:46:26.474Z,82.68
2023-03-08T01:49:04.945Z,81.99
2023-03-08T01:51:39.773Z,80.28
2023-03-08T01:54:15.610Z,82.03
2023-03-08T01:56:47.276Z,81.06
2023-03-08T01:59:15.822Z,81.46
2023-03-08T02:01:44.237Z,80.75
2023-03-08T02:04:13.242Z,81.28
2023-03-08T02:06:41.948Z,82.81
2023-03-08T02:09:11.236Z,82.79
2023-03-08T02:11:42.101Z,83.07
2023-03-08T02:14:11.421Z,83.57
2023-03-08T02:16:49.246Z,83.98
2023-03-08T02:19:24.370Z,84.75
2023-03-08T02:21:53.286Z,84.67
2023-03-08T02:24:29.545Z,84.11
2023-03-08T02:27:03.141Z,84.63
2023-03-08T02:29:32.478Z,84.54
2023-03-08T02:32:01.884Z,84.22
2023-03-08T02:34:31.864Z,84.48
2023-03-08T02:37:00.715Z,84.64
2023-03-08T02:39:33.439Z,84.48
2023-03-08T02:42:01.627Z,84.79
2023-03-08T02:44:30.840Z,84.60
2023-03-08T02:46:59.672Z,84.43
2023-03-08T02:49:28.075Z,84.94
2023-03-08T02:51:57.595Z,84.59
2023-03-08T02:54:25.517Z,84.78
2023-03-08T02:56:56.977Z,84.18
2023-03-08T02:59:26.805Z,84.94
2023-03-08T03:01:55.092Z,84.41
2023-03-08T03:04:25.539Z,84.48
2023-03-08T03:06:58.011Z,84.06
2023-03-08T03:09:29.508Z,83.62
2023-03-08T03:12:02.124Z,83.69
2023-03-08T03:14:31.260Z,84.44
2023-03-08T03:17:01.970Z,84.35
2023-03-08T03:19:31.762Z,84.06
2023-03-08T03:21:59.583Z,85.06
2023-03-08T03:24:28.079Z,85.66
2023-03-08T03:26:59.723Z,85.31
2023-03-08T03:29:33.100Z,85.37
2023-03-08T03:32:08.701Z,85.37
2023-03-08T03:34:37.653Z,84.73
2023-03-08T03:37:06.159Z,85.41
2023-03-08T03:39:39.016Z,84.71
2023-03-08T03:42:11.651Z,85.13
2023-03-08T03:44:42.406Z,85.04
2023-03-08T03:47:12.218Z,84.80
2023-03-08T03:49:43.713Z,84.03
2023-03-08T03:52:20.828Z,85.23
2023-03-08T03:54:54.640Z,85.50
2023-03-08T03:57:35.161Z,84.52
2023-03-08T04:00:06.193Z,83.16
2023-03-08T04:02:38.342Z,85.61
2023-03-08T04:05:10.064Z,85.66
2023-03-08T04:07:39.180Z,85.28
2023-03-08T04:10:08.167Z,83.49
2023-03-08T04:12:36.163Z,82.91
2023-03-08T04:15:11.672Z,83.79
2023-03-08T04:17:39.959Z,85.79
2023-03-08T04:20:10.444Z,86.66
2023-03-08T04:22:44.389Z,84.08
2023-03-08T04:25:12.746Z,83.82
2023-03-08T04:27:45.641Z,84.04
2023-03-08T04:30:16.779Z,84.65
2023-03-08T04:32:48.774Z,84.15
2023-03-08T04:35:30.374Z,84.22
2023-03-08T04:37:59.061Z,84.20
2023-03-08T04:40:27.330Z,83.31
2023-03-08T04:42:55.544Z,83.70
2023-03-08T04:45:26.345Z,82.57
2023-03-08T04:47:55.966Z,83.28
2023-03-08T04:50:25.405Z,82.50
2023-03-08T04:52:53.260Z,83.70
2023-03-08T04:55:28.630Z,82.50
2023-03-08T04:57:57.482Z,82.22
2023-03-08T05:00:30.240Z,82.54
2023-03-08T05:02:59.598Z,82.58
2023-03-08T05:05:27.554Z,82.42
2023-03-08T05:07:55.538Z,83.55
2023-03-08T05:10:23.720Z,83.78
2023-03-08T05:12:51.628Z,84.29
2023-03-08T05:15:22.157Z,83.85
2023-03-08T05:17:54.017Z,82.99
2023-03-08T05:20:24.511Z,83.54
2023-03-08T05:22:59.288Z,81.60
2023-03-08T05:25:31.755Z,84.44
2023-03-08T05:28:01.158Z,82.33
2023-03-08T05:30:30.242Z,82.69
2023-03-08T05:33:07.248Z,83.10
2023-03-08T05:35:37.976Z,82.06
2023-03-08T05:38:09.458Z,79.55
2023-03-08T05:40:39.291Z,78.87
2023-03-08T05:43:08.936Z,78.29
2023-03-08T05:45:37.109Z,78.26
2023-03-08T05:48:12.798Z,78.84
2023-03-08T05:50:40.863Z,80.08
2023-03-08T05:53:09.979Z,78.33
2023-03-08T05:56:13.372Z,79.55
2023-03-08T05:58:45.624Z,79.07
2023-03-08T06:01:19.424Z,80.72
2023-03-08T06:03:51.484Z,81.16
2023-03-08T06:06:21.216Z,81.04
2023-03-08T06:08:56.224Z,82.03
2023-03-08T06:11:34.397Z,81.61
2023-03-08T06:14:03.747Z,81.72
2023-03-08T06:16:34.410Z,81.89
2023-03-08T06:19:07.282Z,82.25
2023-03-08T06:21:37.313Z,82.20
2023-03-08T06:24:06.519Z,82.91
2023-03-08T06:26:35.913Z,83.17
2023-03-08T06:29:13.443Z,83.17
2023-03-08T06:31:43.947Z,83.43
2023-03-08T06:34:16.706Z,83.50
2023-03-08T06:36:46.788Z,84.13
2023-03-08T06:39:16.348Z,84.33
2023-03-08T06:41:47.316Z,84.29
2023-03-08T06:44:16.817Z,84.04
2023-03-08T06:46:45.151Z,84.61
2023-03-08T06:49:20.987Z,84.66
2023-03-08T06:51:49.342Z,84.97
2023-03-08T06:54:24.084Z,85.41
2023-03-08T06:56:54.817Z,84.88
2023-03-08T06:59:28.445Z,85.15
2023-03-08T07:01:57.581Z,85.48
2023-03-08T07:04:28.435Z,85.12
2023-03-08T07:06:57.550Z,85.13
2023-03-08T07:09:27.999Z,84.83
2023-03-08T07:11:59.210Z,85.02
2023-03-08T07:14:27.577Z,85.22
2023-03-08T07:16:55.676Z,85.13
2023-03-08T07:19:28.197Z,85.62
2023-03-08T07:21:59.405Z,86.58
2023-03-08T07:24:29.026Z,86.09
2023-03-08T07:26:56.807Z,86.73
2023-03-08T07:29:27.870Z,85.37
2023-03-08T07:31:59.942Z,85.84
2023-03-08T07:34:30.451Z,86.35
2023-03-08T07:37:01.112Z,86.41
2023-03-08T07:39:31.711Z,86.98
2023-03-08T07:42:01.416Z,87.25
2023-03-08T07:44:29.687Z,86.92
2023-03-08T07:46:58.293Z,87.70
2023-03-08T07:49:27.448Z,87.46
2023-03-08T07:52:01.093Z,87.21
2023-03-08T07:54:30.091Z,86.21
2023-03-08T07:57:01.522Z,86.72
2023-03-08T07:59:29.959Z,87.22
2023-03-08T08:02:01.474Z,86.61
2023-03-08T08:04:31.414Z,87.33
2023-03-08T08:07:05.153Z,87.61
2023-03-08T08:09:34.211Z,87.21
2023-03-08T08:12:02.491Z,86.47
2023-03-08T08:14:36.672Z,87.66
2023-03-08T08:17:05.629Z,87.83
2023-03-08T08:19:35.712Z,87.63
2023-03-08T08:22:08.568Z,87.78
2023-03-08T08:24:37.469Z,88.53
2023-03-08T08:27:09.189Z,87.81
2023-03-08T08:29:39.433Z,87.87
2023-03-08T08:32:11.130Z,87.77
2023-03-08T08:34:39.966Z,87.47
2023-03-08T08:37:13.230Z,87.71
2023-03-08T08:39:51.447Z,87.60
2023-03-08T08:42:19.536Z,87.39
2023-03-08T08:44:51.324Z,87.51
2023-03-08T08:47:21.290Z,87.99
2023-03-08T08:49:55.952Z,87.12
2023-03-08T08:52:29.900Z,87.87
2023-03-08T08:55:00.657Z,88.85
2023-03-08T08:57:34.248Z,88.31
2023-03-08T09:00:12.264Z,87.90
2023-03-08T09:02:43.928Z,87.68
2023-03-08T09:05:12.268Z,87.69
2023-03-08T09:07:43.732Z,88.47
2023-03-08T09:10:14.309Z,88.52
2023-03-08T09:12:50.758Z,88.83
2023-03-08T09:15:21.896Z,87.66
2023-03-08T09:17:51.732Z,86.86
2023-03-08T09:20:23.805Z,86.57
2023-03-08T09:22:55.906Z,86.89
2023-03-08T09:25:27.220Z,86.64
2023-03-08T09:27:55.428Z,86.87
2023-03-08T09:30:24.816Z,87.49
2023-03-08T09:32:53.352Z,87.49
2023-03-08T09:35:21.950Z,87.30
2023-03-08T09:37:51.191Z,87.59
2023-03-08T09:40:33.723Z,87.80
2023-03-08T09:43:08.722Z,87.31
2023-03-08T09:45:38.886Z,87.73
2023-03-08T09:48:19.177Z,87.48
2023-03-08T09:50:52.842Z,87.73
2023-03-08T09:53:30.119Z,87.03
2023-03-08T09:56:07.194Z,87.50
2023-03-08T09:58:43.834Z,88.12
2023-03-08T10:01:25.864Z,88.25
2023-03-08T10:04:38.499Z,87.58
2023-03-08T10:07:35.133Z,87.91
2023-03-08T10:10:31.400Z,88.85
2023-03-08T10:13:32.153Z,88.01
2023-03-08T10:16:14.503Z,87.34
2023-03-08T10:18:48.102Z,87.54
2023-03-08T10:21:24.990Z,86.72
2023-03-08T10:24:08.056Z,87.25
2023-03-08T10:26:37.800Z,87.32
2023-03-08T10:31:52.329Z,86.70
2023-03-08T10:34:32.619Z,86.86
2023-03-08T10:37:08.252Z,86.86
2023-03-08T10:39:37.212Z,87.55
2023-03-08T10:42:16.958Z,87.87
2023-03-08T10:44:53.283Z,86.82
2023-03-08T10:47:26.909Z,87.02
2023-03-08T10:50:18.547Z,86.82
2023-03-08T10:52:55.831Z,86.57
2023-03-08T10:55:28.162Z,87.16
2023-03-08T10:57:59.632Z,86.50
2023-03-08T11:00:35.704Z,86.93
2023-03-08T11:03:16.089Z,87.51
2023-03-08T11:05:54.105Z,87.35
2023-03-08T11:08:25.391Z,86.64
2023-03-08T11:11:14.305Z,87.65
2023-03-08T11:13:49.091Z,87.36
2023-03-08T11:16:31.415Z,87.12
2023-03-08T11:19:08.238Z,87.36
2023-03-08T11:21:55.926Z,86.92
2023-03-08T11:24:40.195Z,86.58
2023-03-08T11:27:24.592Z,86.60
2023-03-08T11:30:07.898Z,86.45
2023-03-08T11:33:00.842Z,86.08
2023-03-08T11:35:48.096Z,86.40
2023-03-08T11:38:19.809Z,86.52
2023-03-08T11:40:57.825Z,86.07
2023-03-08T11:43:46.624Z,87.54
2023-03-08T11:46:29.551Z,86.54
2023-03-08T11:49:18.900Z,86.82
2023-03-08T11:52:03.969Z,86.18
2023-03-08T11:54:45.078Z,86.65
2023-03-08T11:57:16.165Z,86.38
2023-03-08T11:59:51.433Z,86.34
2023-03-08T12:02:26.495Z,86.15
2023-03-08T12:05:03.100Z,86.54
2023-03-08T12:07:41.436Z,87.50
2023-03-08T12:10:20.547Z,86.89
2023-03-08T12:12:57.615Z,85.81
2023-03-08T12:15:36.424Z,85.75
2023-03-08T12:18:12.335Z,86.41
2023-03-08T12:20:43.781Z,85.95
2023-03-08T12:23:30.212Z,85.29
2023-03-08T12:26:09.972Z,85.71
2023-03-08T12:28:49.538Z,85.83
2023-03-08T12:31:28.719Z,85.44
2023-03-08T12:34:15.033Z,87.19
2023-03-08T12:36:49.102Z,87.50
2023-03-08T12:39:37.520Z,86.89
2023-03-08T12:42:17.495Z,86.35
2023-03-08T12:44:48.163Z,86.20
2023-03-08T12:47:24.411Z,86.14
2023-03-08T12:49:58.213Z,86.22
2023-03-08T12:52:33.364Z,86.23
2023-03-08T12:55:14.052Z,86.92
2023-03-08T12:57:50.052Z,87.83
2023-03-08T13:00:30.597Z,88.85
2023-03-08T13:03:09.195Z,88.63
2023-03-08T13:05:42.010Z,87.67
2023-03-08T13:08:30.018Z,88.19
2023-03-08T13:11:17.372Z,87.87
2023-03-08T13:13:52.483Z,87.98
2023-03-08T13:16:42.772Z,87.78
2023-03-08T13:19:20.721Z,88.09
2023-03-08T13:21:53.342Z,87.26
2023-03-08T13:24:40.179Z,88.12
2023-03-08T13:27:33.918Z,88.67
2023-03-08T13:30:18.217Z,90.89
2023-03-08T13:32:49.339Z,88.65
2023-03-08T13:35:20.188Z,88.21
2023-03-08T13:37:56.772Z,89.88
2023-03-08T13:40:25.591Z,87.57
2023-03-08T13:42:56.802Z,90.32
2023-03-08T13:45:27.539Z,88.78
2023-03-08T13:48:02.499Z,87.21
2023-03-08T13:50:33.047Z,90.23
2023-03-08T13:53:07.076Z,87.64
2023-03-08T13:55:41.520Z,88.19
2023-03-08T13:58:29.332Z,87.93
2023-03-08T14:01:04.415Z,87.64
2023-03-08T14:03:33.872Z,89.18
2023-03-08T14:06:05.482Z,88.93
2023-03-08T14:08:41.386Z,88.43
2023-03-08T14:11:17.732Z,88.79
2023-03-08T14:13:53.064Z,88.83
2023-03-08T14:16:28.413Z,88.64
2023-03-08T14:18:56.643Z,88.91
2023-03-08T14:21:27.627Z,88.59
2023-03-08T14:23:57.809Z,88.48
2023-03-08T14:26:32.028Z,89.06
2023-03-08T14:32:06.703Z,89.08
2023-03-08T14:34:40.853Z,88.48
2023-03-08T14:37:19.660Z,89.03
2023-03-08T14:39:50.669Z,88.57
2023-03-08T14:42:23.851Z,87.91
2023-03-08T14:44:54.421Z,89.48
2023-03-08T14:47:32.109Z,89.45
2023-03-08T14:50:04.146Z,89.15
2023-03-08T14:52:35.769Z,88.37
2023-03-08T14:55:06.237Z,88.97
2023-03-08T14:57:35.728Z,88.63
2023-03-08T15:00:16.329Z,89.18
2023-03-08T15:02:47.538Z,88.50
2023-03-08T15:05:28.114Z,88.86
2023-03-08T15:08:05.936Z,88.88
2023-03-08T15:10:37.402Z,89.08
2023-03-08T15:13:09.208Z,89.52
2023-03-08T15:15:37.443Z,89.74
2023-03-08T15:18:08.214Z,89.55
2023-03-08T15:20:46.823Z,88.99
2023-03-08T15:23:19.514Z,89.75
2023-03-08T15:25:50.232Z,90.37
2023-03-08T15:28:20.176Z,89.71
2023-03-08T15:30:52.719Z,90.56
2023-03-08T15:33:23.925Z,89.44
2023-03-08T15:35:54.077Z,89.69
2023-03-08T15:38:24.346Z,88.82
2023-03-08T15:40:52.852Z,89.28
2023-03-08T15:43:21.198Z,89.39
2023-03-08T15:45:53.010Z,89.27
2023-03-08T15:48:24.713Z,89.56
2023-03-08T15:50:53.604Z,89.57
2023-03-08T15:53:34.857Z,89.17
2023-03-08T15:56:05.468Z,89.59
2023-03-08T15:58:35.472Z,89.54
2023-03-08T16:01:04.086Z,89.65
2023-03-08T16:03:37.642Z,91.24
2023-03-08T16:06:15.423Z,89.99
2023-03-08T16:08:51.742Z,90.62
2023-03-08T16:11:22.520Z,88.89
2023-03-08T16:13:52.054Z,89.45
2023-03-08T16:16:32.297Z,89.17
2023-03-08T16:19:11.015Z,88.81
2023-03-08T16:21:41.585Z,89.57
2023-03-08T16:24:11.477Z,89.55
2023-03-08T16:26:41.651Z,89.03
2023-03-08T16:29:12.373Z,89.25
2023-03-08T16:31:40.270Z,91.27
2023-03-08T16:34:12.975Z,90.61
2023-03-08T16:36:41.654Z,89.58
2023-03-08T16:39:10.553Z,90.46
2023-03-08T16:41:40.537Z,90.88
2023-03-08T16:44:23.220Z,90.76
2023-03-08T16:46:53.826Z,90.85
2023-03-08T16:49:28.618Z,90.02
2023-03-08T16:51:57.258Z,89.15
2023-03-08T16:54:30.310Z,90.66
2023-03-08T16:57:04.834Z,92.48
2023-03-08T16:59:42.366Z,91.16
2023-03-08T17:02:16.015Z,93.34
2023-03-08T17:04:46.946Z,93.72
2023-03-08T17:07:18.319Z,92.91
2023-03-08T17:09:47.221Z,93.66
2023-03-08T17:12:16.107Z,93.81
2023-03-08T17:14:45.734Z,93.03
2023-03-08T17:17:17.372Z,93.74
2023-03-08T17:19:48.944Z,93.84
2023-03-08T17:22:18.012Z,95.23
2023-03-08T17:24:46.066Z,94.41
2023-03-08T17:27:17.059Z,95.03
2023-03-08T17:29:46.163Z,95.06
2023-03-08T17:32:16.623Z,95.54
2023-03-08T17:37:43.052Z,95.41
2023-03-08T17:40:14.655Z,96.00
2023-03-08T17:42:43.441Z,96.29
2023-03-08T17:45:33.852Z,96.36
2023-03-08T17:48:19.006Z,95.92
2023-03-08T17:50:50.651Z,96.08
2023-03-08T17:53:24.468Z,95.24
2023-03-08T17:55:53.303Z,95.14
2023-03-08T17:58:21.464Z,95.55
2023-03-08T18:00:52.169Z,95.71
2023-03-08T18:03:21.789Z,94.99
2023-03-08T18:05:53.539Z,94.64
2023-03-08T18:08:31.010Z,93.67
2023-03-08T18:10:59.586Z,94.25
2023-03-08T18:13:31.173Z,94.47
2023-03-08T18:16:14.378Z,94.49
2023-03-08T18:18:58.732Z,95.23
2023-03-08T18:21:39.982Z,94.09
2023-03-08T18:27:31.263Z,95.08
2023-03-08T18:30:07.900Z,94.97
2023-03-08T18:39:10.027Z,94.55
2023-03-08T18:42:33.764Z,94.56
2023-03-08T18:49:14.469Z,94.61
2023-03-08T19:00:55.078Z,94.65
2023-03-08T19:03:38.336Z,94.25
2023-03-08T19:12:37.580Z,95.40
2023-03-08T19:15:26.616Z,94.74
2023-03-08T19:29:44.326Z,95.17
2023-03-08T19:39:06.477Z,95.40
2023-03-08T20:03:00.296Z,94.89
2023-03-08T21:18:08.882Z,95.25
2023-03-08T22:16:17.947Z,94.05
2023-03-08T22:18:58.597Z,94.18
2023-03-08T22:21:32.746Z,94.92
2023-03-08T22:24:06.880Z,95.48
2023-03-08T22:26:49.202Z,95.35
2023-03-08T22:29:24.002Z,95.85
2023-03-08T22:32:17.085Z,95.54
2023-03-08T22:35:24.254Z,95.47
2023-03-08T22:40:47.840Z,95.07
2023-03-08T22:54:54.661Z,94.44
2023-03-08T23:06:51.361Z,94.69
2023-03-08T23:09:44.230Z,94.42
2023-03-08T23:13:06.438Z,94.37
2023-03-08T23:19:12.277Z,94.54
2023-03-08T23:33:26.063Z,95.69
2023-03-08T23:45:37.085Z,95.00
2023-03-08T23:48:11.005Z,95.79
2023-03-08T23:50:40.193Z,95.63
2023-03-08T23:53:14.590Z,95.23
2023-03-08T23:55:45.371Z,95.87
2023-03-08T23:58:19.083Z,95.56
